createdAt,value
2022-11-15T00:01:10.847Z,24.92
2022-11-15T00:03:38.014Z,25.20
2022-11-15T00:06:05.611Z,26.48
2022-11-15T00:08:33.520Z,25.02
2022-11-15T00:11:01.542Z,24.30
2022-11-15T00:13:29.339Z,23.80
2022-11-15T00:16:00.339Z,23.40
2022-11-15T00:18:27.878Z,22.65
2022-11-15T00:20:55.108Z,23.60
2022-11-15T00:23:22.510Z,22.45
2022-11-15T00:25:56.578Z,22.58
2022-11-15T00:28:23.790Z,21.85
2022-11-15T00:30:50.930Z,24.48
2022-11-15T00:33:18.282Z,23.40
2022-11-15T00:35:45.485Z,22.63
2022-11-15T00:38:12.635Z,23.17
2022-11-15T00:40:39.776Z,23.83
2022-11-15T00:43:06.957Z,23.73
2022-11-15T00:45:34.112Z,24.48
2022-11-15T00:48:01.262Z,23.65
2022-11-15T00:50:28.481Z,22.90
2022-11-15T00:52:55.640Z,23.27
2022-11-15T00:55:22.865Z,22.88
2022-11-15T00:57:50.076Z,23.00
2022-11-15T01:00:17.439Z,24.77
2022-11-15T01:02:44.555Z,22.13
2022-11-15T01:05:11.734Z,21.90
2022-11-15T01:07:38.951Z,21.17
2022-11-15T01:10:06.375Z,22.38
2022-11-15T01:12:33.646Z,22.40
2022-11-15T01:15:00.857Z,24.25
2022-11-15T01:17:28.261Z,21.45
2022-11-15T01:19:55.442Z,22.70
2022-11-15T01:22:22.617Z,21.55
2022-11-15T01:24:51.744Z,22.20
2022-11-15T01:27:18.928Z,21.85
2022-11-15T01:29:46.065Z,21.98
2022-11-15T01:32:13.161Z,22.40
2022-11-15T01:34:40.275Z,21.20
2022-11-15T01:37:07.393Z,21.15
2022-11-15T01:39:34.580Z,21.08
2022-11-15T01:42:01.877Z,21.65
2022-11-15T01:44:47.999Z,20.50
2022-11-15T01:47:17.430Z,21.08
2022-11-15T01:49:51.267Z,22.48
2022-11-15T01:52:20.504Z,20.10
2022-11-15T01:54:48.587Z,19.13
2022-11-15T01:57:15.753Z,19.15
2022-11-15T01:59:44.935Z,21.92
2022-11-15T02:02:12.363Z,19.50
2022-11-15T02:04:42.370Z,20.83
2022-11-15T02:07:10.672Z,19.55
2022-11-15T02:09:39.070Z,21.48
2022-11-15T02:12:07.256Z,19.88
2022-11-15T02:14:34.814Z,20.27
2022-11-15T02:17:01.950Z,20.17
2022-11-15T02:19:35.235Z,20.40
2022-11-15T02:22:11.179Z,19.38
2022-11-15T02:24:54.070Z,20.08
2022-11-15T02:27:27.066Z,19.27
2022-11-15T02:30:12.840Z,20.15
2022-11-15T02:32:47.467Z,22.00
2022-11-15T02:35:22.851Z,19.90
2022-11-15T02:38:01.270Z,19.17
2022-11-15T02:40:28.997Z,20.05
2022-11-15T02:43:17.852Z,17.88
2022-11-15T02:45:50.344Z,18.88
2022-11-15T02:48:18.555Z,19.08
2022-11-15T02:50:45.757Z,19.00
2022-11-15T02:53:12.876Z,18.83
2022-11-15T02:55:42.574Z,17.98
2022-11-15T02:58:09.661Z,18.58
2022-11-15T03:00:37.630Z,19.48
2022-11-15T03:03:16.750Z,18.77
2022-11-15T03:06:13.051Z,18.48
2022-11-15T03:08:55.745Z,19.17
2022-11-15T03:11:23.944Z,18.10
2022-11-15T03:14:00.003Z,18.08
2022-11-15T03:16:32.919Z,17.63
2022-11-15T03:19:08.637Z,18.30
2022-11-15T03:21:36.601Z,17.98
2022-11-15T03:24:05.733Z,17.92
2022-11-15T03:26:34.473Z,18.67
2022-11-15T03:29:13.565Z,18.70
2022-11-15T03:31:51.126Z,19.30
2022-11-15T03:34:38.942Z,18.67
2022-11-15T03:37:06.875Z,19.38
2022-11-15T03:39:34.577Z,18.95
2022-11-15T03:42:11.111Z,18.80
2022-11-15T03:44:53.318Z,18.33
2022-11-15T03:47:23.380Z,18.88
2022-11-15T03:49:55.164Z,18.05
2022-11-15T03:52:22.953Z,18.35
2022-11-15T03:54:55.736Z,18.00
2022-11-15T03:57:23.318Z,18.60
2022-11-15T03:59:50.575Z,16.83
2022-11-15T04:02:18.439Z,18.58
2022-11-15T04:04:45.835Z,18.50
2022-11-15T04:07:15.961Z,18.13
2022-11-15T04:10:01.886Z,17.40
2022-11-15T04:12:32.180Z,17.90
2022-11-15T04:15:09.910Z,17.98
2022-11-15T04:17:47.974Z,17.17
2022-11-15T04:20:33.877Z,18.13
2022-11-15T04:23:20.606Z,17.75
2022-11-15T04:25:49.274Z,18.27
2022-11-15T04:28:16.440Z,18.15
2022-11-15T04:30:43.557Z,17.95
2022-11-15T04:33:10.691Z,17.55
2022-11-15T04:35:37.796Z,18.55
2022-11-15T04:38:06.218Z,17.17
2022-11-15T04:40:33.540Z,17.15
2022-11-15T04:43:03.955Z,17.27
2022-11-15T04:45:31.638Z,18.35
2022-11-15T04:47:58.748Z,17.63
2022-11-15T04:50:25.949Z,17.00
2022-11-15T04:52:54.260Z,17.13
2022-11-15T04:55:21.907Z,17.67
2022-11-15T04:57:49.084Z,18.25
2022-11-15T05:00:18.283Z,20.85
2022-11-15T05:03:04.246Z,17.25
2022-11-15T05:05:31.490Z,16.60
2022-11-15T05:07:58.641Z,16.75
2022-11-15T05:10:25.749Z,16.98
2022-11-15T05:12:52.867Z,17.13
2022-11-15T05:15:20.044Z,17.60
2022-11-15T05:17:47.224Z,18.33
2022-11-15T05:20:14.548Z,17.33
2022-11-15T05:22:41.975Z,18.05
2022-11-15T05:25:09.397Z,17.95
2022-11-15T05:27:36.753Z,18.02
2022-11-15T05:30:03.951Z,17.77
2022-11-15T05:32:31.310Z,17.13
2022-11-15T05:34:58.545Z,17.83
2022-11-15T05:37:25.735Z,17.65
2022-11-15T05:39:52.852Z,18.10
2022-11-15T05:42:20.620Z,19.13
2022-11-15T05:44:49.785Z,16.27
2022-11-15T05:47:19.291Z,16.95
2022-11-15T05:49:47.052Z,17.48
2022-11-15T05:52:15.558Z,16.80
2022-11-15T05:54:42.792Z,17.63
2022-11-15T05:57:10.030Z,18.10
2022-11-15T05:59:37.510Z,16.38
2022-11-15T06:02:04.703Z,16.42
2022-11-15T06:04:31.992Z,17.65
2022-11-15T06:07:00.085Z,16.60
2022-11-15T06:09:27.360Z,19.20
2022-11-15T06:11:54.511Z,19.42
2022-11-15T06:14:21.669Z,23.65
2022-11-15T06:16:48.847Z,19.70
2022-11-15T06:19:16.069Z,21.42
2022-11-15T06:21:43.237Z,20.20
2022-11-15T06:24:10.515Z,26.83
2022-11-15T06:26:37.694Z,21.52
2022-11-15T06:29:05.489Z,18.05
2022-11-15T06:31:32.706Z,22.38
2022-11-15T06:33:59.904Z,17.80
2022-11-15T06:36:27.077Z,17.98
2022-11-15T06:38:54.373Z,20.20
2022-11-15T06:41:22.220Z,21.73
2022-11-15T06:43:49.395Z,21.95
2022-11-15T06:46:16.535Z,21.20
2022-11-15T06:48:43.740Z,24.40
2022-11-15T06:51:11.186Z,20.13
2022-11-15T06:53:38.361Z,26.85
2022-11-15T06:56:06.725Z,25.17
2022-11-15T06:58:34.033Z,20.60
2022-11-15T07:01:02.364Z,23.67
2022-11-15T07:03:30.052Z,19.95
2022-11-15T07:06:01.552Z,21.00
2022-11-15T07:08:32.861Z,24.20
2022-11-15T07:11:01.592Z,29.00
2022-11-15T07:13:29.659Z,19.08
2022-11-15T07:15:57.105Z,20.15
2022-11-15T07:18:24.318Z,20.58
2022-11-15T07:20:51.462Z,20.65
2022-11-15T07:23:18.734Z,20.15
2022-11-15T07:25:46.041Z,19.58
2022-11-15T07:28:14.372Z,26.15
2022-11-15T07:30:45.182Z,20.40
2022-11-15T07:33:12.768Z,20.13
2022-11-15T07:35:39.921Z,22.92
2022-11-15T07:38:07.109Z,19.10
2022-11-15T07:40:34.257Z,17.23
2022-11-15T07:43:02.442Z,21.30
2022-11-15T07:45:29.841Z,17.38
2022-11-15T07:47:57.403Z,20.25
2022-11-15T07:50:25.276Z,16.80
2022-11-15T07:52:56.436Z,18.73
2022-11-15T07:55:28.011Z,19.10
2022-11-15T07:57:55.260Z,23.05
2022-11-15T08:00:22.433Z,18.27
2022-11-15T08:02:49.952Z,17.20
2022-11-15T08:05:17.151Z,18.25
2022-11-15T08:07:44.323Z,17.15
2022-11-15T08:10:12.913Z,17.73
2022-11-15T08:12:40.120Z,17.08
2022-11-15T08:15:07.576Z,18.20
2022-11-15T08:17:34.935Z,17.23
2022-11-15T08:20:02.135Z,17.77
2022-11-15T08:22:29.336Z,17.35
2022-11-15T08:24:56.535Z,16.67
2022-11-15T08:27:23.739Z,16.05
2022-11-15T08:29:53.393Z,14.80
2022-11-15T08:32:25.150Z,17.40
2022-11-15T08:34:52.341Z,16.55
2022-11-15T08:37:19.557Z,19.60
2022-11-15T08:39:46.672Z,18.02
2022-11-15T08:42:19.760Z,19.15
2022-11-15T08:44:47.478Z,20.30
2022-11-15T08:47:14.968Z,19.65
2022-11-15T08:49:42.159Z,21.25
2022-11-15T08:52:09.301Z,19.85
2022-11-15T08:54:36.476Z,19.15
2022-11-15T08:57:03.670Z,23.90
2022-11-15T08:59:30.839Z,18.98
2022-11-15T09:01:58.006Z,18.30
2022-11-15T09:04:25.692Z,24.20
2022-11-15T09:06:52.917Z,18.52
2022-11-15T09:09:20.064Z,18.88
2022-11-15T09:11:47.749Z,22.40
2022-11-15T09:14:15.336Z,19.83
2022-11-15T09:16:42.500Z,19.65
2022-11-15T09:19:11.807Z,29.02
2022-11-15T09:21:39.250Z,25.92
2022-11-15T09:24:06.568Z,19.50
2022-11-15T09:26:33.742Z,22.42
2022-11-15T09:29:02.241Z,20.55
2022-11-15T09:31:30.525Z,19.35
2022-11-15T09:33:57.663Z,19.90
2022-11-15T09:36:25.058Z,18.38
2022-11-15T09:38:52.200Z,20.38
2022-11-15T09:41:31.544Z,16.67
2022-11-15T09:44:07.790Z,15.43
2022-11-15T09:46:34.940Z,18.67
2022-11-15T09:49:05.797Z,20.55
2022-11-15T09:51:37.452Z,21.30
2022-11-15T09:56:58.612Z,16.27
2022-11-15T09:59:44.051Z,20.92
2022-11-15T10:02:18.640Z,16.97
2022-11-15T10:04:45.984Z,17.50
2022-11-15T10:07:29.211Z,17.02
2022-11-15T10:09:58.821Z,17.52
2022-11-15T10:12:26.972Z,15.85
2022-11-15T10:15:02.215Z,18.00
2022-11-15T10:17:39.977Z,50.55
2022-11-15T10:20:19.575Z,31.85
2022-11-15T10:22:48.588Z,28.00
2022-11-15T10:25:21.853Z,32.25
2022-11-15T10:28:00.351Z,32.67
2022-11-15T10:30:47.787Z,26.80
2022-11-15T10:33:27.524Z,32.40
2022-11-15T10:36:26.100Z,34.08
2022-11-15T10:38:56.272Z,31.80
2022-11-15T10:41:38.133Z,32.97
2022-11-15T10:44:23.868Z,34.67
2022-11-15T10:47:06.068Z,26.02
2022-11-15T10:49:34.227Z,28.08
2022-11-15T10:52:14.235Z,30.75
2022-11-15T10:54:44.070Z,32.60
2022-11-15T10:57:16.670Z,28.00
2022-11-15T10:59:48.394Z,37.88
2022-11-15T11:02:28.002Z,29.77
2022-11-15T11:04:55.217Z,26.98
2022-11-15T11:07:24.462Z,27.40
2022-11-15T11:10:02.046Z,28.50
2022-11-15T11:12:31.220Z,26.27
2022-11-15T11:14:58.942Z,22.67
2022-11-15T11:17:27.342Z,23.10
2022-11-15T11:19:58.966Z,26.48
2022-11-15T11:22:44.962Z,24.38
2022-11-15T11:25:18.160Z,25.98
2022-11-15T11:27:52.162Z,19.58
2022-11-15T11:30:29.882Z,24.60
2022-11-15T11:33:12.650Z,20.50
2022-11-15T11:35:48.716Z,22.98
2022-11-15T11:38:21.627Z,19.98
2022-11-15T11:41:07.609Z,20.75
2022-11-15T11:43:34.719Z,21.08
2022-11-15T11:46:20.646Z,19.55
2022-11-15T11:48:54.773Z,21.20
2022-11-15T11:51:30.482Z,21.00
2022-11-15T11:54:05.584Z,19.23
2022-11-15T11:56:36.645Z,22.02
2022-11-15T11:59:29.847Z,22.85
2022-11-15T12:01:57.358Z,20.65
2022-11-15T12:04:31.668Z,22.67
2022-11-15T12:07:04.466Z,21.50
2022-11-15T12:10:01.502Z,21.35
2022-11-15T12:12:36.926Z,18.67
2022-11-15T12:15:22.831Z,17.77
2022-11-15T12:17:50.183Z,18.02
2022-11-15T12:20:19.781Z,20.80
2022-11-15T12:22:55.129Z,20.20
2022-11-15T12:25:42.531Z,17.95
2022-11-15T12:28:26.344Z,21.20
2022-11-15T12:30:58.109Z,18.02
2022-11-15T12:33:45.452Z,18.27
2022-11-15T12:36:24.852Z,17.65
2022-11-15T12:38:55.317Z,14.88
2022-11-15T12:41:23.455Z,15.20
2022-11-15T12:43:50.765Z,15.80
2022-11-15T12:46:21.926Z,16.45
2022-11-15T12:48:53.744Z,20.02
2022-11-15T12:51:44.039Z,18.05
2022-11-15T12:54:23.283Z,19.70
2022-11-15T12:57:08.408Z,19.58
2022-11-15T12:59:49.636Z,23.67
2022-11-15T13:02:25.898Z,28.77
2022-11-15T13:04:54.456Z,30.98
2022-11-15T13:07:56.805Z,27.88
2022-11-15T13:10:28.151Z,32.63
2022-11-15T13:12:59.645Z,32.83
2022-11-15T13:15:39.650Z,32.08
2022-11-15T13:18:25.138Z,34.15
2022-11-15T13:20:52.296Z,93.85
2022-11-15T13:23:19.402Z,75.28
2022-11-15T13:25:47.271Z,78.93
2022-11-15T13:28:17.567Z,83.30
2022-11-15T13:30:55.271Z,75.75
2022-11-15T13:33:30.396Z,74.20
2022-11-15T13:36:01.681Z,77.43
2022-11-15T13:38:32.540Z,65.55
2022-11-15T13:41:00.685Z,69.93
2022-11-15T13:43:30.528Z,78.43
2022-11-15T13:46:06.749Z,74.70
2022-11-15T13:48:34.963Z,69.53
2022-11-15T13:51:07.088Z,69.32
2022-11-15T13:53:35.449Z,65.03
2022-11-15T13:56:04.577Z,69.22
2022-11-15T13:58:32.295Z,66.68
2022-11-15T14:01:02.113Z,63.70
2022-11-15T14:03:30.873Z,63.83
2022-11-15T14:06:13.006Z,66.15
2022-11-15T14:08:40.951Z,66.03
2022-11-15T14:11:14.492Z,58.72
2022-11-15T14:13:42.030Z,57.53
2022-11-15T14:16:16.612Z,63.50
2022-11-15T14:18:48.515Z,57.30
2022-11-15T14:21:15.814Z,56.17
2022-11-15T14:23:43.458Z,59.45
2022-11-15T14:26:28.055Z,50.58
2022-11-15T14:28:55.188Z,54.80
2022-11-15T14:31:22.936Z,48.00
2022-11-15T14:33:50.120Z,48.63
2022-11-15T14:36:18.453Z,47.58
2022-11-15T14:38:45.629Z,44.33
2022-11-15T14:41:23.289Z,44.03
2022-11-15T14:43:51.091Z,47.65
2022-11-15T14:46:18.454Z,44.92
2022-11-15T14:48:45.615Z,39.90
2022-11-15T14:51:13.742Z,51.67
2022-11-15T14:53:43.404Z,51.30
2022-11-15T14:56:11.030Z,33.92
2022-11-15T14:58:38.190Z,41.92
2022-11-15T15:01:13.914Z,37.58
2022-11-15T15:03:41.561Z,41.85
2022-11-15T15:06:15.076Z,41.42
2022-11-15T15:08:44.842Z,41.45
2022-11-15T15:11:17.973Z,37.90
2022-11-15T15:13:45.102Z,37.55
2022-11-15T15:16:12.269Z,35.85
2022-11-15T15:18:39.481Z,36.50
2022-11-15T15:21:15.126Z,34.13
2022-11-15T15:23:42.278Z,31.48
2022-11-15T15:26:10.217Z,34.90
2022-11-15T15:28:39.703Z,26.50
2022-11-15T15:31:07.898Z,30.35
2022-11-15T15:33:35.121Z,39.53
2022-11-15T15:36:02.560Z,25.90
2022-11-15T15:38:30.147Z,30.88
2022-11-15T15:40:57.497Z,31.27
2022-11-15T15:43:24.675Z,29.33
2022-11-15T15:45:54.537Z,28.92
2022-11-15T15:48:21.672Z,25.38
2022-11-15T15:50:50.223Z,29.45
2022-11-15T15:53:18.304Z,33.17
2022-11-15T15:55:45.713Z,27.75
2022-11-15T15:58:12.997Z,29.23
2022-11-15T16:00:40.202Z,29.80
2022-11-15T16:03:07.459Z,26.92
2022-11-15T16:05:34.740Z,25.35
2022-11-15T16:08:01.940Z,28.63
2022-11-15T16:10:30.365Z,26.98
2022-11-15T16:12:58.646Z,28.38
2022-11-15T16:15:26.720Z,26.85
2022-11-15T16:17:55.404Z,26.23
2022-11-15T16:20:43.420Z,24.80
2022-11-15T16:23:11.433Z,25.80
2022-11-15T16:25:49.424Z,27.40
2022-11-15T16:28:19.732Z,23.88
2022-11-15T16:30:49.029Z,26.23
2022-11-15T16:33:21.258Z,25.67
2022-11-15T16:35:48.930Z,26.35
2022-11-15T16:38:16.880Z,28.20
2022-11-15T16:40:44.514Z,26.98
2022-11-15T16:43:11.957Z,29.58
2022-11-15T16:45:39.224Z,28.10
2022-11-15T16:48:06.461Z,23.73
2022-11-15T16:50:41.101Z,21.48
2022-11-15T16:53:08.304Z,24.83
2022-11-15T16:55:35.417Z,25.33
2022-11-15T16:58:02.662Z,22.15
2022-11-15T17:00:29.923Z,21.10
2022-11-15T17:02:57.309Z,28.48
2022-11-15T17:05:27.327Z,26.35
2022-11-15T17:07:54.451Z,27.70
2022-11-15T17:10:25.472Z,22.77
2022-11-15T17:12:53.231Z,23.88
2022-11-15T17:15:20.650Z,24.70
2022-11-15T17:17:52.751Z,33.20
2022-11-15T17:20:20.407Z,24.85
2022-11-15T17:22:47.639Z,26.55
2022-11-15T17:25:14.914Z,21.58
2022-11-15T17:27:42.080Z,22.58
2022-11-15T17:30:09.435Z,20.38
2022-11-15T17:32:37.533Z,24.13
2022-11-15T17:35:12.063Z,21.45
2022-11-15T17:37:42.140Z,23.30
2022-11-15T17:40:09.610Z,25.23
2022-11-15T17:42:36.752Z,19.70
2022-11-15T17:45:09.353Z,21.30
2022-11-15T17:47:36.987Z,22.70
2022-11-15T17:50:04.219Z,25.58
2022-11-15T17:52:31.682Z,21.70
2022-11-15T17:54:58.872Z,21.33
2022-11-15T17:57:26.064Z,27.15
2022-11-15T17:59:53.349Z,25.15
2022-11-15T18:02:20.677Z,26.45
2022-11-15T18:04:47.967Z,30.60
2022-11-15T18:07:15.202Z,28.70
2022-11-15T18:09:44.631Z,23.58
2022-11-15T18:12:12.421Z,24.08
2022-11-15T18:14:39.946Z,26.95
2022-11-15T18:17:07.086Z,23.08
2022-11-15T18:19:34.692Z,23.08
2022-11-15T18:22:04.427Z,48.00
2022-11-15T18:24:31.636Z,56.45
2022-11-15T18:26:59.484Z,56.17
2022-11-15T18:29:26.852Z,54.80
2022-11-15T18:31:57.497Z,48.17
2022-11-15T18:34:25.544Z,40.28
2022-11-15T18:36:53.334Z,36.97
2022-11-15T18:39:20.739Z,42.30
2022-11-15T18:41:48.275Z,37.55
2022-11-15T18:44:15.915Z,44.80
2022-11-15T18:46:44.904Z,53.90
2022-11-15T18:49:13.161Z,49.78
2022-11-15T18:51:43.519Z,45.97
2022-11-15T18:54:11.908Z,53.80
2022-11-15T18:56:39.208Z,35.10
2022-11-15T18:59:06.687Z,42.92
2022-11-15T19:01:35.262Z,39.05
2022-11-15T19:04:09.834Z,40.17
2022-11-15T19:06:38.816Z,40.45
2022-11-15T19:09:05.966Z,31.70
2022-11-15T19:11:35.722Z,40.28
2022-11-15T19:14:04.815Z,32.25
2022-11-15T19:16:33.394Z,33.83
2022-11-15T19:19:01.905Z,33.95
2022-11-15T19:21:30.924Z,31.90
2022-11-15T19:23:58.271Z,29.50
2022-11-15T19:26:25.581Z,38.67
2022-11-15T19:28:53.684Z,32.88
2022-11-15T19:31:23.294Z,37.42
2022-11-15T19:33:51.094Z,30.67
2022-11-15T19:36:19.916Z,29.02
2022-11-15T19:38:47.449Z,30.50
2022-11-15T19:41:15.782Z,27.85
2022-11-15T19:43:42.903Z,26.52
2022-11-15T19:46:13.196Z,28.45
2022-11-15T19:48:40.676Z,25.33
2022-11-15T19:51:08.834Z,30.50
2022-11-15T19:53:36.226Z,30.77
2022-11-15T19:56:04.869Z,21.33
2022-11-15T19:58:33.869Z,28.58
2022-11-15T20:01:03.055Z,31.02
2022-11-15T20:03:31.473Z,24.20
2022-11-15T20:06:06.003Z,23.08
2022-11-15T20:08:34.186Z,24.00
2022-11-15T20:11:01.673Z,25.08
2022-11-15T20:13:28.838Z,25.55
2022-11-15T20:15:56.608Z,21.17
2022-11-15T20:18:24.273Z,20.25
2022-11-15T20:20:51.861Z,24.77
2022-11-15T20:23:19.468Z,24.90
2022-11-15T20:25:47.484Z,26.77
2022-11-15T20:28:22.096Z,25.50
2022-11-15T20:30:51.654Z,28.58
2022-11-15T20:33:19.154Z,23.95
2022-11-15T20:35:46.358Z,34.70
2022-11-15T20:38:13.524Z,33.42
2022-11-15T20:40:41.044Z,32.13
2022-11-15T20:43:12.137Z,28.80
2022-11-15T20:45:39.770Z,26.75
2022-11-15T20:48:07.230Z,29.33
2022-11-15T20:50:43.255Z,27.33
2022-11-15T20:53:11.562Z,32.63
2022-11-15T20:55:42.349Z,24.65
2022-11-15T20:58:10.100Z,26.60
2022-11-15T21:00:37.449Z,21.60
2022-11-15T21:03:08.285Z,24.15
2022-11-15T21:05:36.299Z,33.70
2022-11-15T21:08:03.491Z,21.95
2022-11-15T21:10:49.535Z,21.65
2022-11-15T21:13:16.695Z,30.60
2022-11-15T21:15:43.877Z,20.38
2022-11-15T21:18:11.112Z,25.88
2022-11-15T21:20:38.388Z,57.38
2022-11-15T21:23:05.598Z,47.33
2022-11-15T21:25:33.877Z,40.75
2022-11-15T21:28:01.084Z,46.25
2022-11-15T21:30:29.952Z,44.13
2022-11-15T21:32:57.175Z,41.47
2022-11-15T21:35:24.480Z,42.50
2022-11-15T21:37:56.486Z,39.83
2022-11-15T21:40:25.082Z,39.45
2022-11-15T21:42:52.258Z,46.47
2022-11-15T21:45:19.386Z,45.25
2022-11-15T21:47:46.903Z,33.38
2022-11-15T21:50:14.476Z,38.60
2022-11-15T21:52:41.748Z,40.10
2022-11-15T21:55:09.397Z,38.13
2022-11-15T21:57:36.574Z,39.13
2022-11-15T22:00:23.054Z,35.03
2022-11-15T22:02:50.331Z,36.58
2022-11-15T22:05:17.884Z,34.75
2022-11-15T22:07:45.053Z,33.28
2022-11-15T22:10:12.247Z,31.10
2022-11-15T22:12:39.385Z,35.10
2022-11-15T22:15:06.718Z,34.50
2022-11-15T22:17:52.646Z,31.08
2022-11-15T22:23:07.019Z,35.22
2022-11-15T22:25:34.151Z,28.35
2022-11-15T22:28:01.316Z,31.17
2022-11-15T22:30:28.481Z,34.30
2022-11-15T22:32:55.587Z,29.55
2022-11-15T22:35:22.787Z,38.75
2022-11-15T22:37:49.899Z,34.42
2022-11-15T22:40:17.503Z,36.17
2022-11-15T22:42:44.736Z,29.67
2022-11-15T22:45:11.885Z,29.67
2022-11-15T22:47:39.064Z,28.13
2022-11-15T22:50:06.521Z,33.30
2022-11-15T22:52:33.908Z,30.63
2022-11-15T22:55:01.067Z,29.27
2022-11-15T22:57:28.308Z,29.65
2022-11-15T22:59:55.484Z,23.67
2022-11-15T23:02:22.729Z,30.00
2022-11-15T23:04:49.933Z,31.92
2022-11-15T23:07:17.090Z,29.52
2022-11-15T23:09:46.520Z,35.55
2022-11-15T23:12:36.628Z,33.15
2022-11-15T23:15:03.848Z,33.35
2022-11-15T23:17:32.689Z,38.88
2022-11-15T23:20:11.200Z,37.45
2022-11-15T23:22:49.845Z,32.80
2022-11-15T23:25:16.976Z,29.42
2022-11-15T23:27:44.091Z,29.77
2022-11-15T23:30:30.011Z,28.92
2022-11-15T23:33:16.135Z,30.63
2022-11-15T23:35:43.382Z,31.95
2022-11-15T23:38:10.603Z,31.50
2022-11-15T23:40:37.759Z,28.38
2022-11-15T23:43:04.946Z,30.17
2022-11-15T23:45:32.220Z,26.55
2022-11-15T23:48:01.507Z,28.00
2022-11-15T23:50:29.055Z,28.33
2022-11-15T23:52:56.174Z,27.55
2022-11-15T23:55:23.382Z,29.30
2022-11-15T23:57:50.616Z,29.10
